Nearby METAR Reports

 

KSJC - San Jose, California, USA
Distance from station: NE 14km
Actualización: 07/03/2021 02:53
Few Clouds
Few Clouds
 Viento del N
Viento: N 22 km/h
Temperatura: 13°C
Rocío: 6°C
Humedad: 63%
Barómetro: 1019.3 hPa
Clouds: Few Clouds
Visibilidad: 16 km
Cloud details: Few Clouds 701 m
Few Clouds 1280 m
2021/03/07 01:53 KSJC 070153Z 35012KT 10SM FEW023 FEW042 13/06 A3010 RMK AO2 SLP193 T01280056
KNUQ - Moffett Nas/Mtn, California, USA
Distance from station: N 14km
Actualización: 07/03/2021 02:55
Despejado
Despejado
 Viento del NNO
Viento: NNO 11 km/h
Temperatura: 13°C
Rocío: 5°C
Humedad: 59%
Barómetro: 1019.3 hPa
Clouds: Despejado
Visibilidad: 16 km
2021/03/07 01:55 KNUQ 070155Z AUTO 33006KT 10SM CLR 13/05 A3010 RMK AO2
 
KPAO - Palo Alto, California, USA
Distance from station: NNO 23km
Actualización: 07/03/2021 02:47
Few Clouds
Few Clouds
 Viento del NO
Viento: NO 19 km/h
Temperatura: 12°C
Rocío: 4°C
Humedad: 58%
Barómetro: 1019.6 hPa
Clouds: Few Clouds
Visibilidad: 16 km
Cloud details: Few Clouds 762 m
2021/03/07 01:47 KPAO 070147Z 31010KT 10SM FEW025 12/04 A3011
KRHV - San Jose/Reid, California, USA
Distance from station: ENE 19km
Actualización: 07/03/2021 01:50
Despejado
Despejado
 Viento del ONO
Viento: ONO 22 km/h
Temperatura: 14°C
Rocío: 6°C
Humedad: 59%
Barómetro: 1019.3 hPa
Clouds: Despejado
Visibilidad: 16 km
2021/03/07 00:50 KRHV 070050Z 30012KT 10SM SKC 14/06 A3010
 
KOAK - Oakland, California, USA
Distance from station: NNO 50km
Actualización: 07/03/2021 02:53
Few Clouds
Few Clouds
 Viento del O
Viento: O 30 km/h
Temperatura: 13°C
Rocío: 6°C
Humedad: 63%
Barómetro: 1019.6 hPa
Clouds: Few Clouds
Visibilidad: 16 km
Cloud details: Few Clouds 610 m
Few Clouds 6096 m
2021/03/07 01:53 KOAK 070153Z 28016KT 10SM FEW020 FEW200 13/06 A3011 RMK AO2 SLP197 T01330061
KSQL - San Carlos Airpo, California, USA
Distance from station: NO 34km
Actualización: 07/03/2021 01:47
NOT Current
Despejado
Despejado
 Viento del ONO
Viento: ONO 19 km/h
Temperatura: 14°C
Rocío: 4°C
Humedad: 51%
Barómetro: 1020 hPa
Clouds: Despejado
Visibilidad: 16 km
2021/03/07 00:47 KSQL 070047Z 29010KT 10SM SKC 14/04 A3012
 
KSFO - San Francisco, California, USA
Distance from station: NO 49km
Actualización: 07/03/2021 02:56
Parcialmente nuboso
Parcialmente nuboso
 Viento del O
Viento: O 30 km/h
Temperatura: 11°C
Rocío: 6°C
Humedad: 72%
Barómetro: 1020 hPa
Clouds: Parcialmente nuboso
Visibilidad: 16 km
Cloud details: Few Clouds 549 m
Few Clouds 823 m
Parcialmente nuboso 6096 m
2021/03/07 01:56 KSFO 070156Z 28016KT 10SM FEW018 FEW027 SCT200 11/06 A3012 RMK AO2 SLP198 T01110056
KE16 - San Martin, California, USA
Distance from station: ESE 43km
Actualización: 07/03/2021 02:55
Despejado
Despejado
 Viento del NO
Viento: NO 17 km/h, Racha: 28 km/h
Temperatura: 13°C
Rocío: 5°C
Humedad: 59%
Barómetro: 1019.3 hPa
Clouds: Despejado
Visibilidad: 16 km
2021/03/07 01:55 KE16 070155Z AUTO 32009G15KT 10SM CLR 13/05 A3010 RMK AO2 PWINO PNO
 
KWVI - Watsonville, California, USA
Distance from station: SSE 44km
Actualización: 07/03/2021 02:53
Despejado
Despejado
 Viento del calm
Viento: Calma
Temperatura: 13°C
Rocío: 6°C
Humedad: 63%
Barómetro: 1019 hPa
Clouds: Despejado
Visibilidad: 16 km
2021/03/07 01:53 KWVI 070153Z AUTO 00000KT 10SM CLR 13/06 A3009 RMK AO2 SLP190 T01330056
KHAF - Half Moon Bay, California, USA
Distance from station: ONO 50km
Actualización: 07/03/2021 02:55
Despejado
Despejado
 Viento del NNO
Viento: NNO 20 km/h, Racha: 28 km/h
Temperatura: 9°C
Temp.Sensacion: 6°C
Rocío: 6°C
Humedad: 82%
Barómetro: 1020.7 hPa
Clouds: Despejado
Visibilidad: 11 km
2021/03/07 01:55 KHAF 070155Z AUTO 33011G15KT 7SM CLR 09/06 A3014 RMK AO2
 
KHWD - Hayward, California, USA
Distance from station: N 44km
Actualización: 07/03/2021 02:54
Despejado
Despejado
 Viento del O
Viento: O 20 km/h
Temperatura: 11°C
Rocío: 6°C
Humedad: 72%
Barómetro: 1019.6 hPa
Clouds: Despejado
Visibilidad: 16 km
2021/03/07 01:54 KHWD 070154Z 28011KT 10SM CLR 11/06 A3011 RMK AO2 SLP205 T01110056
KLVK - Livermore, California, USA
Distance from station: NNE 51km
Actualización: 07/03/2021 02:53
Despejado
Despejado
 Viento del O
Viento: O 19 km/h
Temperatura: 11°C
Rocío: 6°C
Humedad: 72%
Barómetro: 1019 hPa
Clouds: Despejado
Visibilidad: 16 km
2021/03/07 01:53 KLVK 070153Z 27010KT 10SM CLR 11/06 A3009 RMK AO2 SLP187 T01110061